Time;durP1;ratioP1;P1;durP2;ratioP2;P2;SDS_P1;SDS_P2;PMS_P1;PMS_P2;Temp;Humidity;BMP_temperature;BMP_pressure;BME280_temperature;BME280_humidity;BME280_pressure;Samples;Min_cycle;Max_cycle;Signal;HPM_P1;HPM_P2
2021/06/01 00:01:36;;;;;;;5.78;3.42;;;12.60;60.10;;;11.29;58.11;96255.47;4978323;28;20112;-66
2021/06/01 00:04:02;;;;;;;6.00;3.60;;;12.60;59.60;;;11.29;58.67;96254.66;5003279;28;20533;-66
2021/06/01 00:06:28;;;;;;;5.70;3.75;;;12.60;59.80;;;11.27;58.25;96251.41;4973869;28;20388;-66
2021/06/01 00:08:54;;;;;;;4.22;3.38;;;12.60;60.50;;;11.23;57.87;96256.25;5001336;28;20112;-64
2021/06/01 00:11:20;;;;;;;5.57;3.42;;;12.60;61.00;;;11.21;59.21;96257.44;5009065;23;20186;-66
2021/06/01 00:13:46;;;;;;;5.57;3.90;;;12.50;60.30;;;11.18;58.33;96253.38;4964847;28;20596;-66
2021/06/01 00:16:12;;;;;;;4.95;3.40;;;12.50;60.40;;;11.18;57.97;96252.56;4974344;28;20066;-68
2021/06/01 00:18:38;;;;;;;4.20;3.30;;;12.50;60.50;;;11.14;59.19;96246.03;4973800;28;20038;-66
2021/06/01 00:21:05;;;;;;;3.85;3.33;;;12.50;60.80;;;11.12;58.37;96258.59;4973466;28;20113;-66
2021/06/01 00:23:34;;;;;;;6.20;3.35;;;12.40;60.60;;;11.09;59.64;96253.66;4990315;28;20034;-66
2021/06/01 00:26:00;;;;;;;4.07;3.53;;;12.40;60.60;;;11.03;59.65;96261.31;4991102;28;20026;-67
2021/06/01 00:28:26;;;;;;;4.57;2.95;;;12.40;60.40;;;11.01;58.55;96258.06;4985621;28;20030;-66
2021/06/01 00:30:51;;;;;;;5.55;3.38;;;12.30;60.70;;;10.95;58.98;96256.19;4977219;28;20513;-66
2021/06/01 00:33:17;;;;;;;3.88;3.28;;;12.30;60.50;;;10.91;58.51;96254.13;4975919;28;20069;-66
2021/06/01 00:35:43;;;;;;;5.00;3.50;;;12.20;60.50;;;10.87;58.85;96251.06;4951528;28;20156;-67
2021/06/01 00:38:09;;;;;;;4.22;3.40;;;12.20;60.40;;;10.80;59.31;96244.88;4985530;28;20562;-66
2021/06/01 00:40:34;;;;;;;4.90;3.80;;;12.10;60.50;;;10.77;58.83;96249.72;4972963;28;20389;-66
2021/06/01 00:43:00;;;;;;;4.47;3.45;;;12.10;60.80;;;10.68;59.04;96256.91;4973353;28;20062;-67
2021/06/01 00:45:27;;;;;;;4.90;3.42;;;12.00;61.30;;;10.59;59.65;96252.75;4984833;28;20054;-67
2021/06/01 00:47:53;;;;;;;6.53;3.70;;;12.00;61.50;;;10.55;59.44;96256.75;4984655;28;20023;-65
2021/06/01 00:50:25;;;;;;;6.15;3.80;;;11.90;61.50;;;10.49;61.12;96252.22;4986279;28;20496;-65
2021/06/01 00:52:51;;;;;;;4.57;3.92;;;11.90;61.70;;;10.47;60.40;96260.31;4986521;28;20141;-67
2021/06/01 00:55:17;;;;;;;5.00;4.10;;;11.80;62.00;;;10.45;59.78;96261.50;4989422;28;20080;-66
2021/06/01 00:57:43;;;;;;;7.30;4.30;;;11.80;62.00;;;10.41;60.26;96251.34;5005070;28;20043;-67
2021/06/01 01:00:20;;;;;;;5.47;3.97;;;11.80;62.20;;;10.39;60.12;96253.31;4986700;28;20441;-68
2021/06/01 01:02:46;;;;;;;4.97;3.83;;;11.70;62.50;;;10.37;60.02;96257.13;4984990;28;20519;-68
2021/06/01 01:05:13;;;;;;;6.15;3.85;;;11.70;62.80;;;10.37;60.50;96246.63;4973991;28;20117;-66
2021/06/01 01:07:46;;;;;;;5.85;4.10;;;11.70;63.00;;;10.36;60.88;96258.94;4967192;28;20026;-67
2021/06/01 01:10:13;;;;;;;6.68;4.03;;;11.70;62.90;;;10.36;60.89;96253.69;4990188;28;20105;-66
2021/06/01 01:12:56;;;;;;;5.10;3.92;;;11.70;62.90;;;10.36;62.17;96253.69;4969609;28;20124;-68
2021/06/01 01:15:22;;;;;;;4.90;4.15;;;11.70;63.10;;;10.34;60.81;96242.53;4986669;28;20068;-69
2021/06/01 01:17:52;;;;;;;5.68;4.55;;;11.70;63.30;;;10.34;62.06;96245.19;4967158;28;20049;-67
2021/06/01 01:20:57;;;;;;;6.07;4.35;;;11.70;63.50;;;10.31;62.52;96240.28;4964531;28;20117;-67
2021/06/01 01:23:23;;;;;;;5.38;4.38;;;11.70;63.30;;;10.30;61.32;96235.22;4998579;28;20485;-66
2021/06/01 01:25:48;;;;;;;5.80;4.28;;;11.60;63.30;;;10.29;61.63;96242.28;4956342;28;20060;-68
2021/06/01 01:29:10;;;;;;;5.25;4.07;;;11.60;63.60;;;10.30;62.12;96240.47;5000602;28;20496;-68
2021/06/01 01:31:44;;;;;;;4.88;4.22;;;11.60;63.50;;;10.27;62.16;96232.97;4985793;28;20128;-68
2021/06/01 01:34:11;;;;;;;5.65;4.45;;;11.60;63.90;;;10.23;61.36;96236.94;4957368;28;20133;-67
2021/06/01 01:36:37;;;;;;;6.55;4.55;;;11.60;64.00;;;10.22;61.99;96230.88;4979200;28;20121;-67
2021/06/01 01:39:05;;;;;;;5.28;4.18;;;11.60;64.50;;;10.20;61.82;96227.59;5005596;28;20053;-66
2021/06/01 01:41:30;;;;;;;5.25;4.60;;;11.60;64.60;;;10.19;61.76;96227.78;4989928;28;20044;-65
2021/06/01 01:43:57;;;;;;;5.72;4.35;;;11.60;64.80;;;10.18;62.02;96234.81;4978023;28;20502;-67
2021/06/01 01:49:01;;;;;;;5.07;4.35;;;11.50;65.20;;;10.09;62.44;96220.97;5003881;28;20088;-65
2021/06/01 01:51:36;;;;;;;7.72;4.75;;;11.50;65.00;;;10.08;62.80;96231.66;4987535;28;20401;-67
2021/06/01 01:54:08;;;;;;;6.03;4.35;;;11.40;65.00;;;10.04;63.82;96233.03;5004150;28;20045;-66
2021/06/01 01:56:40;;;;;;;5.47;4.50;;;11.40;65.00;;;10.01;62.43;96228.16;4992772;28;20026;-66
2021/06/01 01:59:08;;;;;;;6.25;4.60;;;11.40;64.80;;;9.96;62.49;96230.50;4960111;28;20045;-66
2021/06/01 02:01:37;;;;;;;7.75;4.45;;;11.30;64.20;;;9.93;62.17;96230.84;4980450;28;20089;-67
2021/06/01 02:04:03;;;;;;;5.68;4.30;;;11.30;64.00;;;9.91;61.74;96227.59;4991259;28;20078;-65
2021/06/01 02:06:29;;;;;;;6.50;4.65;;;11.30;64.40;;;9.88;62.81;96228.78;4987890;28;20034;-65
2021/06/01 02:08:55;;;;;;;5.97;4.43;;;11.20;65.40;;;9.85;62.34;96220.44;5005168;28;20034;-66
2021/06/01 02:11:21;;;;;;;5.93;4.63;;;11.10;65.60;;;9.79;62.47;96220.19;5008339;28;20084;-67
2021/06/01 02:13:59;;;;;;;5.18;4.68;;;11.10;65.60;;;9.74;64.08;96212.03;4976471;28;20486;-66
2021/06/01 02:16:25;;;;;;;7.53;4.57;;;11.10;65.30;;;9.69;62.86;96222.22;4985087;28;20134;-66
2021/06/01 02:18:51;;;;;;;6.88;4.45;;;11.10;65.30;;;9.63;62.87;96230.84;5005980;28;20041;-65
2021/06/01 02:21:23;;;;;;;6.20;4.72;;;11.00;65.30;;;9.55;64.47;96222.25;4993078;28;20038;-64
2021/06/01 02:23:57;;;;;;;5.38;4.63;;;11.00;65.40;;;9.46;64.54;96214.41;5008006;28;20026;-66
2021/06/01 02:26:51;;;;;;;4.75;4.25;;;10.90;65.60;;;9.42;65.08;96220.22;4978035;28;20490;-66
2021/06/01 02:29:35;;;;;;;5.63;4.35;;;10.80;65.70;;;9.34;64.43;96215.88;5000716;28;20099;-65
2021/06/01 02:32:02;;;;;;;5.00;4.43;;;10.70;65.70;;;9.26;63.37;96205.41;5006378;28;20334;-66
2021/06/01 02:34:29;;;;;;;6.97;5.15;;;10.70;65.80;;;9.25;63.65;96216.09;5007751;28;20381;-65
2021/06/01 02:36:54;;;;;;;6.57;4.50;;;10.60;66.00;;;9.23;63.86;96218.91;4975343;28;20033;-68
2021/06/01 02:39:21;;;;;;;5.68;4.15;;;10.60;66.20;;;9.18;63.38;96211.56;4992031;28;20535;-68
2021/06/01 02:41:48;;;;;;;4.18;3.78;;;10.60;66.50;;;9.11;63.91;96205.41;4990521;28;20026;-68
2021/06/01 02:44:14;;;;;;;6.05;4.63;;;10.60;66.80;;;9.09;64.16;96215.25;4988406;28;20084;-66
2021/06/01 02:46:39;;;;;;;5.13;4.20;;;10.60;67.00;;;9.06;64.60;96207.75;4974237;28;20493;-68
2021/06/01 02:49:05;;;;;;;7.97;5.13;;;10.50;67.10;;;9.04;64.92;96222.00;4991879;28;20037;-67
2021/06/01 02:51:32;;;;;;;6.88;5.03;;;10.50;67.20;;;9.01;65.12;96225.00;4990158;28;20037;-66
2021/06/01 02:53:58;;;;;;;6.43;4.35;;;10.50;67.40;;;8.95;64.80;96221.28;4992595;28;20034;-67
2021/06/01 02:56:24;;;;;;;7.28;4.70;;;10.40;67.50;;;8.94;64.95;96224.88;4990426;28;20064;-66
2021/06/01 02:58:50;;;;;;;5.53;4.68;;;10.40;67.50;;;8.92;64.35;96216.38;4986245;28;20036;-66
2021/06/01 03:01:20;;;;;;;7.18;5.18;;;10.40;67.70;;;8.92;65.78;96215.56;4991117;28;20037;-67
2021/06/01 03:03:53;;;;;;;5.50;4.87;;;10.40;67.70;;;8.89;66.66;96211.50;4996841;28;20424;-67
2021/06/01 03:06:24;;;;;;;6.50;5.00;;;10.30;67.90;;;8.92;66.14;96216.38;5006567;28;20031;-66
2021/06/01 03:08:50;;;;;;;;;;;10.40;67.80;;;8.90;67.02;96215.75;4968173;28;20030;-66
2021/06/01 03:11:17;;;;;;;6.07;4.57;;;10.40;67.80;;;8.85;65.18;96218.91;5004971;28;19919;-66
2021/06/01 03:13:44;;;;;;;5.03;4.18;;;10.30;67.90;;;8.84;65.20;96203.34;4990550;28;20042;-66
2021/06/01 03:16:10;;;;;;;5.38;4.65;;;10.40;68.00;;;8.87;64.58;96213.47;4989522;28;20046;-66
2021/06/01 03:18:35;;;;;;;5.50;4.50;;;10.40;67.80;;;8.85;64.84;96215.47;5005453;28;20054;-66
2021/06/01 03:21:01;;;;;;;6.45;4.53;;;10.30;67.70;;;8.85;65.20;96220.69;5006463;28;20172;-67
2021/06/01 03:23:27;;;;;;;6.18;4.63;;;10.30;67.60;;;8.85;65.25;96220.69;4991342;28;20044;-66
2021/06/01 03:25:53;;;;;;;6.90;5.07;;;10.30;67.70;;;8.81;65.67;96216.78;4987616;28;20026;-66
2021/06/01 03:28:19;;;;;;;7.80;4.80;;;10.30;67.90;;;8.79;65.28;96213.50;5007425;28;20041;-66
2021/06/01 03:30:46;;;;;;;7.28;4.93;;;10.40;67.90;;;8.83;65.63;96217.44;4990231;28;20042;-66
2021/06/01 03:33:12;;;;;;;6.20;4.85;;;10.40;68.10;;;8.80;65.48;96217.75;5000418;28;20434;-66
2021/06/01 03:35:38;;;;;;;6.25;4.93;;;10.30;68.20;;;8.82;65.35;96215.78;4992298;28;20050;-68
2021/06/01 03:38:04;;;;;;;5.20;4.70;;;10.40;68.00;;;8.80;65.75;96223.00;4975486;28;20100;-68
2021/06/01 03:40:30;;;;;;;5.53;4.40;;;10.30;67.90;;;8.80;65.50;96217.75;5002833;28;20048;-73
2021/06/01 03:42:56;;;;;;;6.47;4.65;;;10.30;68.10;;;8.79;66.11;96211.69;4989962;28;20038;-69
2021/06/01 03:45:23;;;;;;;5.45;4.88;;;10.30;67.90;;;8.79;65.82;96213.50;5006559;28;20026;-68
2021/06/01 03:47:48;;;;;;;5.10;4.60;;;10.30;67.80;;;8.80;65.59;96220.38;4992256;28;20098;-69
2021/06/01 03:50:14;;;;;;;5.13;4.30;;;10.40;67.80;;;8.80;65.66;96218.56;5004722;28;20113;-69
2021/06/01 03:52:40;;;;;;;7.00;4.68;;;10.40;67.70;;;8.79;66.01;96205.63;5006272;28;20042;-66
2021/06/01 03:55:06;;;;;;;7.30;4.85;;;10.40;68.20;;;8.83;66.07;96214.81;5009126;28;20034;-68
2021/06/01 03:57:32;;;;;;;7.22;4.60;;;10.40;68.50;;;8.84;66.28;96213.81;5008859;28;20025;-66
2021/06/01 03:59:58;;;;;;;7.38;5.20;;;10.50;68.90;;;8.86;66.43;96212.66;5008862;28;20473;-67
2021/06/01 04:02:24;;;;;;;5.20;4.40;;;10.40;68.90;;;8.89;66.41;96214.13;5008567;28;20084;-66
2021/06/01 04:04:50;;;;;;;5.82;4.40;;;10.50;68.40;;;8.94;66.10;96216.19;4991716;28;20385;-66
2021/06/01 04:07:16;;;;;;;5.15;4.60;;;10.60;68.00;;;8.96;66.13;96215.03;5005708;28;20089;-68
2021/06/01 04:09:41;;;;;;;5.15;4.65;;;10.60;68.00;;;9.01;66.29;96223.19;4996411;28;20396;-68
2021/06/01 04:12:08;;;;;;;11.98;8.52;;;10.70;67.90;;;8.99;66.31;96216.47;5009136;28;20026;-67
2021/06/01 04:14:34;;;;;;;11.13;7.25;;;10.70;67.80;;;9.10;66.50;96219.53;4980763;28;20035;-65
2021/06/01 04:17:00;;;;;;;8.45;5.95;;;10.80;67.60;;;9.16;65.76;96213.56;4978068;28;20030;-67
2021/06/01 04:19:25;;;;;;;9.75;6.10;;;10.80;67.50;;;9.25;66.39;96218.72;4978356;28;20057;-67
2021/06/01 04:21:52;;;;;;;7.68;6.03;;;10.90;67.80;;;9.29;66.68;96212.16;4989681;28;20050;-66
2021/06/01 04:24:21;;;;;;;12.32;9.57;;;10.90;67.90;;;9.36;66.90;96218.31;4992504;28;20057;-69
2021/06/01 04:26:47;;;;;;;10.98;9.00;;;11.10;68.20;;;9.43;66.87;96213.97;4992654;28;20030;-67
2021/06/01 04:29:13;;;;;;;11.35;7.45;;;11.10;68.10;;;9.47;66.34;96216.06;5006254;28;20053;-69
2021/06/01 04:31:40;;;;;;;8.50;5.28;;;11.10;68.60;;;9.52;66.97;96218.16;4977677;28;20129;-68
2021/06/01 04:34:07;;;;;;;6.75;5.30;;;11.20;68.80;;;9.55;66.75;96222.25;5003903;28;20513;-68
2021/06/01 04:36:32;;;;;;;7.00;5.20;;;11.20;68.60;;;9.58;66.53;96220.06;5002287;28;20030;-65
2021/06/01 04:38:58;;;;;;;6.80;5.25;;;11.30;68.50;;;9.63;67.42;96220.34;4989871;28;20561;-67
2021/06/01 04:41:24;;;;;;;7.53;5.68;;;11.30;69.20;;;9.63;67.55;96215.09;4994050;28;20482;-66
2021/06/01 04:43:50;;;;;;;9.77;7.88;;;11.30;69.20;;;9.68;66.53;96223.22;5002813;28;20603;-65
2021/06/01 04:46:15;;;;;;;11.35;7.90;;;11.20;68.50;;;9.70;67.10;96223.88;5008692;28;20037;-71
2021/06/01 04:48:41;;;;;;;5.80;4.68;;;11.30;68.50;;;9.71;67.14;96222.06;4990592;28;20042;-69
2021/06/01 04:51:16;;;;;;;5.13;4.30;;;11.30;68.50;;;9.74;66.83;96224.34;5005624;28;20068;-70
2021/06/01 04:53:50;;;;;;;5.05;4.35;;;11.40;68.70;;;9.73;67.79;96215.66;5004583;28;20046;-71
2021/06/01 04:56:16;;;;;;;7.18;5.72;;;11.40;68.30;;;9.77;67.14;96227.44;4969424;28;20121;-68
2021/06/01 04:58:42;;;;;;;7.55;5.85;;;11.50;67.50;;;9.79;67.22;96224.63;4991203;28;20109;-67
2021/06/01 05:01:08;;;;;;;8.57;5.90;;;11.60;67.90;;;9.83;67.87;96218.81;4980114;28;20045;-66
2021/06/01 05:03:34;;;;;;;7.25;5.70;;;11.60;68.30;;;9.88;66.97;96227.97;4975079;28;20730;-66
2021/06/01 05:05:59;;;;;;;6.97;5.70;;;11.60;68.10;;;9.87;66.42;96221.06;5001646;28;20034;-69
2021/06/01 05:08:25;;;;;;;8.55;5.70;;;11.60;67.50;;;9.91;66.27;96211.81;4999684;28;20029;-62
2021/06/01 05:10:51;;;;;;;9.10;5.78;;;11.70;67.40;;;9.97;67.45;96216.38;5008429;28;20041;-62
2021/06/01 05:13:17;;;;;;;10.43;6.57;;;11.70;67.70;;;10.03;66.57;96216.44;4980393;28;20080;-64
2021/06/01 05:15:44;;;;;;;11.70;6.32;;;11.80;67.70;;;10.10;67.50;96216.53;4996865;28;20073;-70
2021/06/01 05:18:11;;;;;;;8.70;5.90;;;11.90;67.70;;;10.18;68.02;96211.16;5001579;28;20181;-69
2021/06/01 05:20:37;;;;;;;11.38;6.30;;;12.00;67.70;;;10.29;66.74;96215.19;5010707;28;20121;-66
2021/06/01 05:23:03;;;;;;;10.02;6.38;;;12.20;67.90;;;10.38;67.98;96220.13;5006170;28;20045;-67
2021/06/01 05:25:29;;;;;;;7.15;5.93;;;12.30;67.30;;;10.50;67.10;96217.03;5008927;28;20034;-65
2021/06/01 05:27:55;;;;;;;6.97;6.03;;;12.40;65.80;;;10.59;66.02;96210.66;4975018;28;20058;-68
2021/06/01 05:30:28;;;;;;;10.13;5.97;;;12.60;65.40;;;10.73;66.17;96208.00;5007698;28;20184;-68
2021/06/01 05:35:46;;;;;;;8.57;6.70;;;12.90;65.10;;;11.03;66.11;96219.19;5020648;28;20412;-69
2021/06/01 05:38:12;;;;;;;10.32;6.22;;;13.20;65.20;;;11.21;65.89;96212.69;4992753;28;20042;-72
2021/06/01 05:40:38;;;;;;;7.32;5.95;;;13.40;64.30;;;11.35;66.07;96212.59;5006582;28;20030;-69
2021/06/01 05:43:04;;;;;;;8.02;6.25;;;13.60;63.10;;;11.52;65.30;96214.94;4991788;28;20125;-71
2021/06/01 05:45:29;;;;;;;8.35;5.85;;;13.80;60.90;;;11.65;64.83;96213.22;4992555;28;20544;-69
2021/06/01 05:47:55;;;;;;;8.73;6.53;;;14.00;60.50;;;11.79;64.26;96213.34;5011114;28;20034;-70
2021/06/01 05:50:21;;;;;;;7.40;5.47;;;14.20;60.20;;;11.95;63.83;96216.47;4992512;28;20484;-69
2021/06/01 05:52:47;;;;;;;9.55;6.05;;;14.40;59.40;;;12.06;64.05;96209.84;4987199;28;20042;-72
2021/06/01 05:55:12;;;;;;;6.78;5.68;;;14.50;59.30;;;12.19;63.83;96215.16;5001051;28;20444;-71
2021/06/01 05:57:38;;;;;;;10.32;5.97;;;14.70;58.30;;;12.34;63.86;96217.69;5006497;28;20056;-70
2021/06/01 06:00:05;;;;;;;7.93;5.85;;;14.90;58.30;;;12.51;62.47;96212.88;4990139;28;20034;-70
2021/06/01 06:02:31;;;;;;;8.77;5.88;;;15.10;56.50;;;12.69;62.52;96209.69;4972743;28;20034;-70
2021/06/01 06:04:57;;;;;;;9.68;6.25;;;15.20;56.50;;;12.87;62.69;96217.81;4988741;28;20053;-70
2021/06/01 06:07:22;;;;;;;8.40;6.25;;;15.40;56.20;;;13.00;61.99;96217.06;5005393;28;20034;-70
2021/06/01 06:09:48;;;;;;;8.57;5.95;;;15.60;55.90;;;13.16;61.78;96216.69;5006484;28;20077;-71
2021/06/01 06:12:14;;;;;;;7.20;5.47;;;15.90;55.40;;;13.35;61.34;96209.78;4988874;28;20077;-69
2021/06/01 06:14:40;;;;;;;9.00;6.10;;;16.10;54.80;;;13.54;60.85;96224.81;4955470;28;20081;-70
2021/06/01 06:17:33;;;;;;;10.07;5.50;;;16.20;53.50;;;13.73;59.29;96212.63;4955545;28;20397;-69
2021/06/01 06:20:03;;;;;;;7.75;5.03;;;16.50;53.20;;;13.94;59.09;96208.91;4972083;28;20031;-69
2021/06/01 06:22:29;;;;;;;7.70;5.22;;;16.80;52.20;;;14.14;60.36;96209.69;5004090;28;20084;-71
2021/06/01 06:24:55;;;;;;;7.60;5.32;;;17.20;51.30;;;14.34;59.98;96204.31;5008056;28;20029;-71
2021/06/01 06:27:21;;;;;;;9.75;5.50;;;17.70;50.20;;;14.52;59.80;96209.78;4990905;28;20121;-70
2021/06/01 06:29:46;;;;;;;8.23;5.80;;;18.10;49.60;;;14.70;59.84;96203.75;4993958;28;20037;-70
2021/06/01 06:32:12;;;;;;;6.40;5.32;;;18.20;48.80;;;14.89;58.48;96209.97;4994609;28;20487;-70
2021/06/01 06:34:38;;;;;;;6.70;4.93;;;18.30;48.10;;;15.12;58.97;96207.59;5008910;28;20033;-72
2021/06/01 06:37:05;;;;;;;6.95;5.22;;;18.50;48.00;;;15.23;58.27;96212.19;4995230;28;20042;-71
2021/06/01 06:39:32;;;;;;;6.60;5.18;;;18.30;47.50;;;15.41;57.62;96206.16;5008650;28;20034;-69
2021/06/01 06:41:58;;;;;;;6.13;5.13;;;18.60;46.60;;;15.56;57.28;96205.81;4994022;28;20389;-71
2021/06/01 06:44:23;;;;;;;6.82;5.18;;;18.70;46.50;;;15.79;57.13;96208.69;4986311;28;20164;-67
2021/06/01 06:47:03;;;;;;;8.07;5.10;;;19.10;46.30;;;16.03;55.53;96209.69;5012780;28;20564;-69
2021/06/01 06:49:29;;;;;;;9.18;5.45;;;19.30;46.30;;;16.25;54.98;96202.09;5019689;28;20088;-68
2021/06/01 06:51:54;;;;;;;10.35;6.82;;;19.40;44.60;;;16.41;55.72;96198.84;4973717;28;20034;-70
2021/06/01 06:54:20;;;;;;;9.50;7.95;;;19.60;44.80;;;16.62;55.01;96202.06;5006282;28;20168;-70
2021/06/01 06:56:46;;;;;;;8.98;6.38;;;19.90;44.60;;;16.79;54.30;96197.78;5009274;28;20125;-71
2021/06/01 06:59:11;;;;;;;7.18;4.70;;;20.10;44.10;;;17.02;54.43;96197.06;5009250;28;20037;-71
2021/06/01 07:01:37;;;;;;;10.38;4.78;;;20.60;42.80;;;17.23;53.15;96196.53;5009801;28;20021;-69
2021/06/01 07:04:03;;;;;;;11.98;6.63;;;20.80;42.20;;;17.42;53.02;96194.56;5009515;28;20038;-69
2021/06/01 07:06:29;;;;;;;13.73;7.88;;;21.10;41.10;;;17.60;52.46;96199.81;4993539;28;20187;-69
2021/06/01 07:08:54;;;;;;;19.33;11.02;;;21.30;40.90;;;17.74;52.16;96201.25;4997743;28;20178;-69
2021/06/01 07:11:20;;;;;;;8.27;6.55;;;21.60;40.60;;;17.90;51.67;96201.59;4978579;28;20036;-71
2021/06/01 07:14:06;;;;;;;10.40;7.07;;;21.60;39.70;;;18.06;48.98;96198.22;4998024;28;20033;-69
2021/06/01 07:16:32;;;;;;;9.07;7.43;;;21.90;39.40;;;18.24;50.14;96198.06;4980024;28;20518;-70
2021/06/01 07:18:57;;;;;;;11.25;7.47;;;22.10;38.50;;;18.41;49.92;96189.34;5005417;28;20138;-67
2021/06/01 07:21:23;;;;;;;6.28;4.50;;;22.20;37.90;;;18.55;49.18;96198.69;4991123;28;20034;-69
2021/06/01 07:23:49;;;;;;;7.25;3.92;;;22.40;37.90;;;18.71;49.50;96195.31;4978216;28;20108;-69
2021/06/01 07:26:15;;;;;;;12.88;8.25;;;22.60;38.30;;;18.90;48.56;96196.72;4978499;28;20431;-69
2021/06/01 07:28:40;;;;;;;8.13;5.65;;;22.80;38.10;;;19.06;48.56;96205.03;4994415;28;20362;-69
2021/06/01 07:31:07;;;;;;;8.57;6.32;;;23.00;37.40;;;19.16;49.39;96207.84;4980946;28;20033;-70
2021/06/01 07:33:32;;;;;;;8.13;4.63;;;23.10;38.00;;;19.33;48.55;96203.34;5001406;28;20432;-69
2021/06/01 07:35:58;;;;;;;6.50;4.30;;;23.40;35.40;;;19.45;47.20;96201.41;4989454;28;20053;-71
2021/06/01 07:38:24;;;;;;;11.35;6.90;;;23.60;35.50;;;19.60;47.86;96198.22;5036122;28;20061;-69
2021/06/01 07:40:50;;;;;;;10.18;5.22;;;23.70;35.80;;;19.72;47.17;96192.81;4991624;28;20034;-69
2021/06/01 07:43:15;;;;;;;8.45;4.22;;;23.90;34.70;;;19.87;46.65;96193.00;4987326;28;20642;-73
2021/06/01 07:45:41;;;;;;;5.05;3.17;;;24.10;34.50;;;20.05;45.97;96189.25;4992589;28;20461;-69
2021/06/01 07:48:07;;;;;;;6.20;3.40;;;24.40;34.20;;;20.17;45.70;96188.13;4991222;28;20030;-66
2021/06/01 07:50:33;;;;;;;6.57;3.38;;;24.50;34.20;;;20.39;45.39;96192.66;5008228;28;20099;-70
2021/06/01 07:52:59;;;;;;;5.32;3.63;;;24.70;34.50;;;20.59;45.37;96189.44;5011090;28;20389;-68
2021/06/01 07:55:24;;;;;;;6.07;3.17;;;24.90;33.00;;;20.78;44.80;96188.06;5008905;28;20037;-68
2021/06/01 07:57:50;;;;;;;7.22;4.25;;;25.00;32.30;;;20.97;43.94;96185.84;4991219;28;20129;-68
2021/06/01 08:00:16;;;;;;;4.82;3.65;;;25.30;32.80;;;21.11;43.56;96176.38;5006907;28;20464;-66
2021/06/01 08:02:42;;;;;;;7.00;4.50;;;25.40;32.10;;;21.29;43.60;96184.06;5008036;28;20034;-64
2021/06/01 08:05:09;;;;;;;5.40;3.47;;;25.60;31.50;;;21.43;42.54;96184.44;4978811;28;20172;-66
2021/06/01 08:07:35;;;;;;;6.00;4.22;;;25.50;30.80;;;21.57;42.56;96184.81;4950692;28;20037;-64
2021/06/01 08:10:03;;;;;;;5.68;2.97;;;25.60;30.60;;;21.68;41.39;96176.59;4983680;28;20485;-69
2021/06/01 08:12:29;;;;;;;5.55;2.80;;;25.70;30.90;;;21.86;41.82;96180.72;4990179;28;20097;-66
2021/06/01 08:14:56;;;;;;;4.03;2.45;;;25.80;30.00;;;22.01;40.90;96178.16;5020508;28;20033;-64
2021/06/01 08:17:22;;;;;;;4.70;2.58;;;25.90;29.90;;;22.31;40.92;96179.41;5000451;28;20048;-65
2021/06/01 08:19:48;;;;;;;3.78;2.38;;;26.40;28.70;;;22.51;40.56;96167.97;4990328;28;20050;-64
2021/06/01 08:22:35;;;;;;;5.45;3.03;;;26.50;28.40;;;22.75;39.96;96179.84;4989969;28;20026;-65
2021/06/01 08:25:00;;;;;;;5.78;3.60;;;26.70;28.50;;;22.92;39.53;96175.09;5009283;28;20057;-67
2021/06/01 08:27:27;;;;;;;5.50;3.45;;;26.90;28.20;;;23.11;38.79;96159.31;5013959;28;20056;-66
2021/06/01 08:29:53;;;;;;;4.28;2.80;;;27.00;27.90;;;23.31;39.24;96165.75;5008760;28;20030;-65
2021/06/01 08:32:19;;;;;;;5.35;2.20;;;27.20;28.30;;;23.55;38.15;96161.47;5007229;28;20118;-66
2021/06/01 08:34:45;;;;;;;5.45;2.60;;;27.50;27.60;;;23.78;37.41;96160.13;5007254;28;20481;-65
2021/06/01 08:37:10;;;;;;;2.60;1.85;;;27.60;27.20;;;23.94;36.20;96159.00;5001548;28;20468;-66
2021/06/01 08:39:36;;;;;;;3.42;2.30;;;27.50;25.50;;;24.12;35.77;96150.38;5027973;28;20041;-66
2021/06/01 08:42:02;;;;;;;3.50;2.38;;;27.70;25.60;;;24.23;34.96;96151.16;4999665;28;20062;-65
2021/06/01 08:44:28;;;;;;;4.53;2.03;;;27.60;26.20;;;24.32;35.25;96146.84;4988810;28;20026;-67
2021/06/01 08:46:55;;;;;;;2.65;1.92;;;27.80;25.30;;;24.42;34.50;96149.47;4989350;28;20582;-68
2021/06/01 08:49:21;;;;;;;3.10;2.03;;;27.90;25.10;;;24.53;34.06;96154.84;4975597;28;20371;-65
2021/06/01 08:51:47;;;;;;;11.02;3.33;;;27.90;25.30;;;24.58;34.07;96152.13;4965015;28;20109;-69
2021/06/01 08:54:13;;;;;;;4.22;2.28;;;27.90;26.10;;;24.63;34.25;96157.47;4988699;28;20038;-71
2021/06/01 08:56:39;;;;;;;4.10;2.42;;;28.10;26.00;;;24.62;33.34;96153.97;4970716;28;20034;-70
2021/06/01 08:59:05;;;;;;;4.13;1.88;;;28.10;24.90;;;24.69;33.67;96161.75;4996714;28;20034;-69
2021/06/01 09:01:30;;;;;;;3.75;1.90;;;28.10;25.00;;;24.80;32.33;96149.03;4995489;28;20081;-71
2021/06/01 09:03:59;;;;;;;3.83;1.98;;;28.30;23.40;;;24.90;31.87;96160.56;5007775;28;20037;-69
2021/06/01 09:06:48;;;;;;;5.75;4.03;;;28.30;22.70;;;24.81;31.77;96156.84;4989772;28;20033;-68
2021/06/01 09:15:05;;;;;;;4.03;2.10;;;28.30;23.40;;;25.02;31.23;96158.34;4995064;28;20499;-69
2021/06/01 09:22:59;;;;;;;2.67;1.88;;;28.50;23.00;;;25.20;30.99;96156.09;4998696;28;20485;-67
2021/06/01 09:26:02;;;;;;;4.32;1.75;;;28.60;23.00;;;25.29;28.90;96157.88;5025629;28;20037;-69
2021/06/01 09:28:21;;;;;;;4.68;2.25;;;28.70;23.00;;;25.49;30.48;96145.34;4982321;28;20037;-65
2021/06/01 09:31:01;;;;;;;4.18;2.10;;;29.10;23.10;;;25.55;28.85;96144.22;4961442;28;20058;-66
2021/06/01 09:33:29;;;;;;;5.13;3.33;;;29.00;23.20;;;25.65;30.17;96144.94;4987912;28;20042;-68
2021/06/01 09:36:00;;;;;;;3.70;2.60;;;29.10;23.40;;;25.74;28.87;96136.28;4972935;28;20509;-68
2021/06/01 09:38:40;;;;;;;11.68;6.25;;;29.20;23.40;;;25.90;29.10;96135.03;4991657;28;20081;-66
2021/06/01 09:41:13;;;;;;;15.18;2.67;;;29.50;23.10;;;26.02;28.36;96132.75;4985936;28;20053;-65
2021/06/01 09:43:56;;;;;;;11.20;2.00;;;29.60;21.90;;;26.27;27.30;96128.97;5006036;28;20088;-67
2021/06/01 09:46:33;;;;;;;6.20;1.80;;;30.00;22.10;;;26.45;26.60;96125.53;4969509;28;20026;-68
2021/06/01 09:49:22;;;;;;;4.82;3.13;;;30.10;21.50;;;26.48;27.15;96124.13;5007446;28;20118;-70
2021/06/01 09:51:56;;;;;;;7.95;1.90;;;30.10;21.90;;;26.52;28.72;96120.59;5017288;28;20021;-69
2021/06/01 09:54:44;;;;;;;6.55;3.20;;;30.30;22.10;;;26.64;27.57;96122.84;5003299;28;20437;-67
2021/06/01 09:57:27;;;;;;;9.23;5.50;;;30.60;21.40;;;26.81;27.07;96116.97;4975070;28;20038;-69
2021/06/01 10:00:17;;;;;;;6.22;4.22;;;30.80;21.00;;;26.93;27.48;96120.00;4986043;28;20024;-71
2021/06/01 10:02:51;;;;;;;7.50;2.38;;;31.00;21.20;;;27.20;28.15;96119.38;5020862;28;20037;-70
2021/06/01 10:05:19;;;;;;;3.60;2.15;;;31.40;21.60;;;27.59;29.13;96113.59;5005258;28;20083;-71
2021/06/01 10:07:45;;;;;;;2.33;1.80;;;31.80;21.20;;;28.05;28.48;96116.28;5005312;28;20050;-70
2021/06/01 10:10:31;;;;;;;11.35;2.17;;;32.20;20.90;;;28.44;25.36;96115.00;4989790;28;20056;-69
2021/06/01 10:13:02;;;;;;;3.28;2.00;;;32.40;20.00;;;28.76;25.95;96115.97;5007337;28;20034;-70
2021/06/01 10:15:29;;;;;;;3.78;2.08;;;32.70;20.00;;;28.91;27.15;96118.34;4984847;28;20137;-73
2021/06/01 10:17:55;;;;;;;6.95;1.80;;;32.70;19.60;;;29.20;27.23;96116.06;4991503;28;20042;-68
2021/06/01 10:20:24;;;;;;;2.92;1.75;;;33.30;19.40;;;29.52;25.68;96111.53;4966392;28;20125;-67
2021/06/01 10:22:50;;;;;;;4.28;2.30;;;33.70;18.60;;;29.72;26.53;96116.44;5002355;28;20477;-68
2021/06/01 10:25:16;;;;;;;5.13;1.90;;;33.90;18.50;;;29.92;26.20;96100.75;4993064;28;20046;-67
2021/06/01 10:27:46;;;;;;;7.38;3.45;;;34.00;18.10;;;30.18;24.26;96102.47;4992201;28;20026;-66
2021/06/01 10:30:13;;;;;;;5.63;3.30;;;34.40;18.70;;;30.38;25.55;96095.66;4990708;28;20570;-74
2021/06/01 10:32:46;;;;;;;3.28;2.13;;;34.60;17.40;;;30.55;24.31;96092.16;5007135;28;20029;-67
2021/06/01 10:35:15;;;;;;;8.63;3.85;;;35.00;17.60;;;30.79;24.63;96089.06;4994122;28;20038;-68
2021/06/01 10:52:01;;;;;;;8.82;6.97;;;36.70;16.90;;;32.50;22.19;96074.59;5003568;28;20164;-68
2021/06/01 10:54:39;;;;;;;11.95;7.22;;;36.90;17.00;;;32.74;21.11;96080.19;5012727;28;20030;-67
2021/06/01 10:57:09;;;;;;;5.53;4.10;;;37.00;15.60;;;33.03;20.54;96078.56;5013223;28;20049;-68